Carnival Vista — 3EMB9 — position and weather

sailwx.info

Track history (hours):
 
Tides and Currents Weather Stations Pressure Air Temp Water Temp Dewpoint Dewpoint Depression Visibility Wind Speed Wind Dir Waves Ship Positions

Carnival Vista

Last reported at 2018-Feb-24 11:58 UTC. Time now 2018-Feb-24 12:18 UTC.
Position N 25°47' W 080°10'.

Length 324 m; draft 8.5 m.

Type: Passenger vessel. MMSI: 356883000.

Date/timePositionNaut miles runAvg speedWind from/ knotsBaromVisibWave heightAir tempDewpointWater temp
2018-Feb-24 11:58N 25°47' W 080°10'0 0.0
2018-Feb-24 11:25N 25°47' W 080°10'0 0.0
2018-Feb-24 10:52N 25°47' W 080°10'0 0.0
2018-Feb-24 10:28N 25°47' W 080°10'0 0.0
2018-Feb-24 09:58N 25°47' W 080°10'0 0.2
2018-Feb-24 09:30N 25°47' W 080°10'0 0.4
2018-Feb-24 09:01N 25°47' W 080°10'5 9.4
2018-Feb-24 08:30N 25°46' W 080°05'3 6.0
2018-Feb-24 08:00N 25°47' W 080°02'5 8.9
2018-Feb-24 07:30N 25°43' W 079°59'612.7
2018-Feb-24 07:00N 25°38' W 079°55'613.2
2018-Feb-24 06:30N 25°33' W 079°51'714.5
2018-Feb-24 06:01N 25°27' W 079°46'1019.2
2018-Feb-24 05:31N 25°19' W 079°41'8969512.0
2018-Feb-23 12:00N 23°06' E 084°12'9535808.8 110 / 301022.010.8 26.024.626.0
2018-Feb-23 00:12N 20°33' W 086°58'210.2
2018-Feb-22 23:59N 20°31' W 086°59'2 4.7
2018-Feb-22 23:29N 20°29' W 086°59'0 0.0
2018-Feb-22 22:59N 20°29' W 086°59'0 0.0
2018-Feb-22 20:08N 20°29' W 086°59'0 0.0
2018-Feb-22 19:59N 20°29' W 086°59'0 0.1
2018-Feb-22 19:29N 20°29' W 086°59'0 0.0
2018-Feb-22 18:59N 20°29' W 086°59'0 0.0
2018-Feb-22 18:29N 20°29' W 086°59'0 0.0
2018-Feb-22 17:56N 20°29' W 086°59'0 0.0
2018-Feb-22 17:29N 20°29' W 086°59'0 0.0
2018-Feb-22 16:59N 20°29' W 086°59'0 0.0
2018-Feb-22 16:29N 20°29' W 086°59'0 0.0
2018-Feb-22 16:00N 20°29' W 086°59'0 0.0
2018-Feb-22 15:30N 20°29' W 086°59'0 0.1
2018-Feb-22 15:00N 20°29' W 086°59'3 6.2
2018-Feb-22 14:30N 20°32' W 086°59'713.8
2018-Feb-22 14:00N 20°37' W 086°54'35113.0
2018-Feb-21 11:00N 19°06' W 080°54'10417.3 060 / 251019.010.8 26.024.626.0
2018-Feb-21 05:00N 18°48' W 079°06'2814.2 090 / 221021.0 5.4 27.024.126.0
2018-Feb-21 03:00N 18°48' W 078°36'2625.7 090 / 221021.0 5.4 27.024.126.0
2018-Feb-21 02:00N 18°36' W 078°12'216 9.8 090 / 221021.0 5.4 27.024.126.0
2018-Feb-20 04:00N 19°48' W 074°36'2928.8 070 / 301021.010.8 27.021.026.0
2018-Feb-20 03:00N 19°54' W 074°06'25617.0 070 / 301021.010.8 27.021.026.0
2018-Feb-19 12:00N 22°24' W 077°48'13116.4 060 / 301021.010.8 27.024.127.0
2018-Feb-19 04:00N 24°06' W 079°18'1918.8 070 / 261022.010.8 25.022.025.0
2018-Feb-19 03:00N 24°24' W 079°24'8117.8 070 / 261022.010.8 25.022.025.0
2018-Feb-18 22:27N 25°40' W 079°55'716.4
2018-Feb-18 22:00N 25°44' W 080°01'611.2
2018-Feb-18 21:30N 25°46' W 080°07'3 5.1
2018-Feb-18 20:59N 25°47' W 080°10'0 0.0
2018-Feb-18 20:29N 25°47' W 080°10'0 0.0
2018-Feb-18 19:59N 25°47' W 080°10'0 0.0
2018-Feb-18 19:29N 25°47' W 080°10'0 0.0
2018-Feb-18 18:59N 25°47' W 080°10'0 0.0
2018-Feb-18 18:26N 25°47' W 080°10'0 0.0
2018-Feb-18 17:59N 25°47' W 080°10'0 0.0
2018-Feb-18 17:29N 25°47' W 080°10'0 0.0
2018-Feb-18 16:59N 25°47' W 080°10'0 0.0
2018-Feb-18 16:29N 25°47' W 080°10'0 0.0
2018-Feb-18 15:59N 25°47' W 080°10'0 0.0
2018-Feb-18 15:20N 25°47' W 080°10'0 0.0
2018-Feb-18 14:50N 25°47' W 080°10'0 0.0
2018-Feb-18 14:29N 25°47' W 080°10'0 0.0
2018-Feb-18 13:56N 25°47' W 080°10'0 0.0
2018-Feb-18 13:26N 25°47' W 080°10'0 0.0
2018-Feb-18 12:59N 25°47' W 080°10'0 0.0
2018-Feb-18 12:23N 25°47' W 080°10'0 0.0
2018-Feb-18 11:59N 25°47' W 080°10'0 0.0
2018-Feb-18 11:29N 25°47' W 080°10'0 0.0
2018-Feb-18 10:59N 25°47' W 080°10'0 0.0
2018-Feb-18 10:29N 25°47' W 080°10'0 0.0
2018-Feb-18 10:00N 25°47' W 080°10'1 1.8
2018-Feb-18 09:30N 25°47' W 080°11'2 4.4
2018-Feb-18 09:00N 25°46' W 080°09'510.9
2018-Feb-18 08:31N 25°47' W 080°03'5 9.1
2018-Feb-18 08:01N 25°43' W 079°59'713.6
2018-Feb-18 07:31N 25°37' W 079°56'713.8
2018-Feb-18 07:00N 25°32' W 079°51'714.3
2018-Feb-18 06:30N 25°27' W 079°45'714.6
2018-Feb-18 06:00N 25°21' W 079°41'21516.6
2018-Feb-17 17:00N 22°18' W 077°36'2914.3 070 / 161021.010.8 27.024.126.0
2018-Feb-17 15:00N 22°00' W 077°12'2120.6 070 / 161021.010.8 27.024.126.0
2018-Feb-17 14:00N 21°48' W 076°54'4615.3 070 / 161021.010.8 27.024.126.0
2018-Feb-17 11:00N 21°24' W 076°12'   040 / 181020.010.8 27.024.127.0
Track history (hours):
 
Tides and Currents Weather Stations Pressure Air Temp Water Temp Dewpoint Dewpoint Depression Visibility Wind Speed Wind Dir Waves Ship Positions

Carnival Vista

Last reported at 2018-Feb-24 11:58 UTC. Time now 2018-Feb-24 12:18 UTC.
Position N 25°47' W 080°10'.

Length 324 m; draft 8.5 m.

Type: Passenger vessel. MMSI: 356883000.

Date/timePositionNaut miles runAvg speedWind from/ knotsBaromVisibWave heightAir tempDewpointWater temp
2018-Feb-24 11:58N 25°47' W 080°10'0 0.0
2018-Feb-24 11:25N 25°47' W 080°10'0 0.0
2018-Feb-24 10:52N 25°47' W 080°10'0 0.0
2018-Feb-24 10:28N 25°47' W 080°10'0 0.0
2018-Feb-24 09:58N 25°47' W 080°10'0 0.2
2018-Feb-24 09:30N 25°47' W 080°10'0 0.4
2018-Feb-24 09:01N 25°47' W 080°10'5 9.4
2018-Feb-24 08:30N 25°46' W 080°05'3 6.0
2018-Feb-24 08:00N 25°47' W 080°02'5 8.9
2018-Feb-24 07:30N 25°43' W 079°59'612.7
2018-Feb-24 07:00N 25°38' W 079°55'613.2
2018-Feb-24 06:30N 25°33' W 079°51'714.5
2018-Feb-24 06:01N 25°27' W 079°46'1019.2
2018-Feb-24 05:31N 25°19' W 079°41'8969512.0
2018-Feb-23 12:00N 23°06' E 084°12'9535808.8 110 / 301022.010.8 26.024.626.0
2018-Feb-23 00:12N 20°33' W 086°58'210.2
2018-Feb-22 23:59N 20°31' W 086°59'2 4.7
2018-Feb-22 23:29N 20°29' W 086°59'0 0.0
2018-Feb-22 22:59N 20°29' W 086°59'0 0.0
2018-Feb-22 20:08N 20°29' W 086°59'0 0.0
2018-Feb-22 19:59N 20°29' W 086°59'0 0.1
2018-Feb-22 19:29N 20°29' W 086°59'0 0.0
2018-Feb-22 18:59N 20°29' W 086°59'0 0.0
2018-Feb-22 18:29N 20°29' W 086°59'0 0.0
2018-Feb-22 17:56N 20°29' W 086°59'0 0.0
2018-Feb-22 17:29N 20°29' W 086°59'0 0.0
2018-Feb-22 16:59N 20°29' W 086°59'0 0.0
2018-Feb-22 16:29N 20°29' W 086°59'0 0.0
2018-Feb-22 16:00N 20°29' W 086°59'0 0.0
2018-Feb-22 15:30N 20°29' W 086°59'0 0.1
2018-Feb-22 15:00N 20°29' W 086°59'3 6.2
2018-Feb-22 14:30N 20°32' W 086°59'713.8
2018-Feb-22 14:00N 20°37' W 086°54'35113.0
2018-Feb-21 11:00N 19°06' W 080°54'10417.3 060 / 251019.010.8 26.024.626.0
2018-Feb-21 05:00N 18°48' W 079°06'2814.2 090 / 221021.0 5.4 27.024.126.0
2018-Feb-21 03:00N 18°48' W 078°36'2625.7 090 / 221021.0 5.4 27.024.126.0
2018-Feb-21 02:00N 18°36' W 078°12'216 9.8 090 / 221021.0 5.4 27.024.126.0
2018-Feb-20 04:00N 19°48' W 074°36'2928.8 070 / 301021.010.8 27.021.026.0
2018-Feb-20 03:00N 19°54' W 074°06'25617.0 070 / 301021.010.8 27.021.026.0
2018-Feb-19 12:00N 22°24' W 077°48'13116.4 060 / 301021.010.8 27.024.127.0
2018-Feb-19 04:00N 24°06' W 079°18'1918.8 070 / 261022.010.8 25.022.025.0
2018-Feb-19 03:00N 24°24' W 079°24'8117.8 070 / 261022.010.8 25.022.025.0
2018-Feb-18 22:27N 25°40' W 079°55'716.4
2018-Feb-18 22:00N 25°44' W 080°01'611.2
2018-Feb-18 21:30N 25°46' W 080°07'3 5.1
2018-Feb-18 20:59N 25°47' W 080°10'0 0.0
2018-Feb-18 20:29N 25°47' W 080°10'0 0.0
2018-Feb-18 19:59N 25°47' W 080°10'0 0.0
2018-Feb-18 19:29N 25°47' W 080°10'0 0.0
2018-Feb-18 18:59N 25°47' W 080°10'0 0.0
2018-Feb-18 18:26N 25°47' W 080°10'0 0.0
2018-Feb-18 17:59N 25°47' W 080°10'0 0.0
2018-Feb-18 17:29N 25°47' W 080°10'0 0.0
2018-Feb-18 16:59N 25°47' W 080°10'0 0.0
2018-Feb-18 16:29N 25°47' W 080°10'0 0.0
2018-Feb-18 15:59N 25°47' W 080°10'0 0.0
2018-Feb-18 15:20N 25°47' W 080°10'0 0.0
2018-Feb-18 14:50N 25°47' W 080°10'0 0.0
2018-Feb-18 14:29N 25°47' W 080°10'0 0.0
2018-Feb-18 13:56N 25°47' W 080°10'0 0.0
2018-Feb-18 13:26N 25°47' W 080°10'0 0.0
2018-Feb-18 12:59N 25°47' W 080°10'0 0.0
2018-Feb-18 12:23N 25°47' W 080°10'0 0.0
2018-Feb-18 11:59N 25°47' W 080°10'0 0.0
2018-Feb-18 11:29N 25°47' W 080°10'0 0.0
2018-Feb-18 10:59N 25°47' W 080°10'0 0.0
2018-Feb-18 10:29N 25°47' W 080°10'0 0.0
2018-Feb-18 10:00N 25°47' W 080°10'1 1.8
2018-Feb-18 09:30N 25°47' W 080°11'2 4.4
2018-Feb-18 09:00N 25°46' W 080°09'510.9
2018-Feb-18 08:31N 25°47' W 080°03'5 9.1
2018-Feb-18 08:01N 25°43' W 079°59'713.6
2018-Feb-18 07:31N 25°37' W 079°56'713.8
2018-Feb-18 07:00N 25°32' W 079°51'714.3
2018-Feb-18 06:30N 25°27' W 079°45'714.6
2018-Feb-18 06:00N 25°21' W 079°41'21516.6
2018-Feb-17 17:00N 22°18' W 077°36'2914.3 070 / 161021.010.8 27.024.126.0
2018-Feb-17 15:00N 22°00' W 077°12'2120.6 070 / 161021.010.8 27.024.126.0
2018-Feb-17 14:00N 21°48' W 076°54'4615.3 070 / 161021.010.8 27.024.126.0
2018-Feb-17 11:00N 21°24' W 076°12'   040 / 181020.010.8 27.024.127.0

Dump ship's entire track history